首页
METAR-TAF:

METAR-TAF

机场 :

巴格達國際機場

巴格达, 伊拉克

纬度: 33-15-45N, 经度: 44-14-04E, 海拔: 35米

当前天气观测

该预报发布于39分钟前的10:00 UTC
风速6节,风向西转西南,在西之间变化
温度 15°C
湿度 59%
气压 1016 hPa
能见度10公里或以上
散云层高于3000英尺

METAR: ORBI 081000Z 24006KT 190V280 9999 SCT030 15/07 Q1016 NOSIG

时间: 13:39 (10:39 UTC)

预报

该预报发布于7小时和39分钟前的03:00 UTC
预报有效从08日的 06点(UTC)到 09日的 06点(UTC)
风速6节,风向西转西南
能見度: 6000

TAF: ORBI 080300Z 0806/0906 24006KT 6000 NSC

超过4000个机场的气象观测和天气预报(METAR&TAF报告)。

可查询的气象台以黄色和红色小点在地图上表示。

将鼠标移到小点上方,可查看气象台名称。

然后点击查看天气观测和预报。

如需切换地图:点击带黑十字的绿色按钮放大地图;点击带横线的绿色按钮缩小地图;或者点击绿色箭头查看邻近地区的地图。


METAR-TAF: